createdAt,value
2019-01-24T00:01:46.891Z,50.56
2019-01-24T00:04:48.893Z,50.49
2019-01-24T00:07:50.991Z,50.48
2019-01-24T00:10:53.024Z,50.55
2019-01-24T00:13:55.126Z,50.43
2019-01-24T00:16:57.105Z,50.39
2019-01-24T00:19:59.129Z,50.32
2019-01-24T00:23:01.171Z,50.17
2019-01-24T00:26:06.284Z,50.54
2019-01-24T00:29:08.319Z,50.38
2019-01-24T00:32:10.377Z,50.51
2019-01-24T00:35:13.375Z,50.54
2019-01-24T00:38:15.487Z,50.56
2019-01-24T00:41:17.536Z,50.01
2019-01-24T00:44:19.573Z,50.05
2019-01-24T00:47:21.569Z,50.35
2019-01-24T00:50:24.157Z,50.15
2019-01-24T00:53:26.649Z,50.29
2019-01-24T00:56:28.693Z,50.52
2019-01-24T00:59:30.932Z,50.48
2019-01-24T01:02:32.918Z,50.51
2019-01-24T01:05:34.889Z,50.56
2019-01-24T01:08:44.182Z,50.54
2019-01-24T01:11:50.079Z,50.21
2019-01-24T01:14:53.517Z,49.93
2019-01-24T01:17:57.673Z,49.97
2019-01-24T01:21:01.992Z,50.55
2019-01-24T01:24:06.088Z,51.20
2019-01-24T01:27:09.747Z,51.21
2019-01-24T01:30:20.387Z,51.54
2019-01-24T01:33:23.166Z,51.42
2019-01-24T01:36:26.405Z,51.63
2019-01-24T01:39:29.954Z,51.57
2019-01-24T01:42:33.830Z,51.75
2019-01-24T01:45:36.605Z,51.66
2019-01-24T01:48:38.910Z,51.52
2019-01-24T01:51:40.930Z,51.39
2019-01-24T01:54:44.438Z,51.31
2019-01-24T01:57:47.222Z,51.43
2019-01-24T02:00:49.970Z,51.53
2019-01-24T02:03:51.994Z,51.49
2019-01-24T02:06:53.983Z,51.50
2019-01-24T02:09:56.958Z,51.66
2019-01-24T02:13:01.035Z,51.71
2019-01-24T02:16:03.683Z,51.57
2019-01-24T02:19:05.791Z,51.66
2019-01-24T02:22:07.971Z,51.87
2019-01-24T02:25:10.203Z,51.88
2019-01-24T02:28:12.287Z,51.68
2019-01-24T02:31:14.321Z,51.61
2019-01-24T02:34:16.354Z,51.85
2019-01-24T02:37:18.335Z,51.77
2019-01-24T02:40:20.605Z,51.84
2019-01-24T02:43:22.595Z,51.66
2019-01-24T02:46:24.620Z,51.75
2019-01-24T02:49:26.634Z,51.75
2019-01-24T02:52:28.689Z,51.74
2019-01-24T02:55:32.491Z,51.60
2019-01-24T02:58:34.565Z,51.68
2019-01-24T03:01:36.635Z,51.75
2019-01-24T03:04:38.682Z,51.73
2019-01-24T03:07:40.694Z,51.77
2019-01-24T03:10:42.833Z,51.94
2019-01-24T03:13:44.817Z,52.05
2019-01-24T03:16:46.881Z,52.75
2019-01-24T03:19:48.871Z,52.70
2019-01-24T03:22:50.934Z,52.73
2019-01-24T03:25:52.932Z,53.23
2019-01-24T03:28:54.975Z,53.23
2019-01-24T03:31:57.001Z,52.73
2019-01-24T03:35:04.088Z,52.64
2019-01-24T03:38:03.171Z,52.41
2019-01-24T03:41:05.505Z,52.15
2019-01-24T03:44:07.446Z,52.44
2019-01-24T03:47:09.478Z,52.38
2019-01-24T03:50:14.198Z,52.47
2019-01-24T03:53:16.237Z,51.95
2019-01-24T03:56:18.289Z,52.08
2019-01-24T03:59:20.443Z,52.03
2019-01-24T04:02:22.461Z,52.04
2019-01-24T04:05:24.519Z,52.09
2019-01-24T04:08:26.512Z,52.21
2019-01-24T04:11:28.562Z,52.23
2019-01-24T04:14:30.520Z,52.26
2019-01-24T04:17:32.772Z,52.29
2019-01-24T04:20:34.761Z,52.48
2019-01-24T04:23:36.886Z,52.22
2019-01-24T04:26:38.889Z,52.05
2019-01-24T04:29:40.941Z,52.26
2019-01-24T04:32:43.091Z,52.39
2019-01-24T04:35:45.178Z,52.51
2019-01-24T04:38:47.201Z,52.71
2019-01-24T04:41:49.356Z,53.08
2019-01-24T04:44:51.357Z,53.22
2019-01-24T04:47:53.413Z,53.68
2019-01-24T04:50:55.390Z,53.75
2019-01-24T04:53:57.588Z,54.13
2019-01-24T04:56:59.730Z,53.90
2019-01-24T05:00:11.776Z,53.92
2019-01-24T05:03:13.911Z,54.13
2019-01-24T05:06:16.025Z,54.15
2019-01-24T05:09:18.023Z,54.22
2019-01-24T05:12:20.081Z,54.10
2019-01-24T05:15:22.059Z,54.06
2019-01-24T05:18:24.119Z,54.09
2019-01-24T05:21:26.139Z,54.21
2019-01-24T05:24:28.240Z,54.23
2019-01-24T05:27:30.861Z,54.28
2019-01-24T05:30:33.045Z,54.19
2019-01-24T05:33:35.028Z,54.28
2019-01-24T05:36:37.042Z,54.37
2019-01-24T05:39:38.995Z,54.49
2019-01-24T05:42:41.054Z,54.62
2019-01-24T05:45:43.048Z,54.36
2019-01-24T05:48:45.111Z,54.19
2019-01-24T05:51:47.088Z,54.42
2019-01-24T05:54:49.085Z,54.73
2019-01-24T05:57:51.031Z,54.69
2019-01-24T06:00:55.291Z,54.79
2019-01-24T06:03:57.548Z,54.74
2019-01-24T06:06:59.599Z,54.64
2019-01-24T06:10:01.624Z,54.59
2019-01-24T06:13:03.600Z,54.52
2019-01-24T06:16:05.558Z,54.73
2019-01-24T06:19:07.641Z,54.83
2019-01-24T06:22:09.594Z,54.82
2019-01-24T06:25:13.906Z,55.07
2019-01-24T06:28:15.920Z,55.03
2019-01-24T06:31:17.947Z,54.99
2019-01-24T06:34:19.886Z,54.97
2019-01-24T06:37:21.894Z,55.14
2019-01-24T06:40:24.102Z,55.27
2019-01-24T06:43:26.380Z,55.58
2019-01-24T06:46:28.316Z,55.62
2019-01-24T06:49:30.366Z,55.41
2019-01-24T06:52:32.342Z,55.42
2019-01-24T06:55:35.563Z,56.13
2019-01-24T06:58:37.536Z,56.13
2019-01-24T07:01:40.546Z,56.04
2019-01-24T07:04:42.480Z,56.08
2019-01-24T07:07:44.480Z,56.17
2019-01-24T07:10:46.459Z,55.76
2019-01-24T07:13:48.445Z,55.29
2019-01-24T07:16:50.376Z,55.15
2019-01-24T07:19:52.462Z,55.07
2019-01-24T07:22:54.358Z,55.30
2019-01-24T07:25:56.413Z,55.70
2019-01-24T07:28:58.404Z,55.52
2019-01-24T07:32:00.519Z,55.46
2019-01-24T07:35:04.927Z,55.81
2019-01-24T07:38:06.960Z,55.79
2019-01-24T07:41:08.899Z,55.69
2019-01-24T07:44:11.082Z,55.77
2019-01-24T07:47:15.078Z,55.87
2019-01-24T07:50:17.334Z,55.88
2019-01-24T07:53:19.422Z,55.51
2019-01-24T07:56:21.412Z,55.51
2019-01-24T07:59:23.371Z,55.77
2019-01-24T08:02:25.843Z,55.53
2019-01-24T08:05:29.401Z,55.66
2019-01-24T08:08:31.559Z,55.54
2019-01-24T08:11:33.564Z,56.21
2019-01-24T08:14:35.557Z,55.43
2019-01-24T08:17:37.526Z,55.59
2019-01-24T08:20:39.576Z,55.20
2019-01-24T08:23:41.551Z,55.25
2019-01-24T08:26:43.557Z,55.16
2019-01-24T08:29:45.464Z,55.09
2019-01-24T08:32:47.379Z,54.76
2019-01-24T08:35:49.522Z,55.11
2019-01-24T08:38:51.648Z,54.99
2019-01-24T08:41:53.581Z,54.94
2019-01-24T08:44:55.701Z,55.00
2019-01-24T08:47:58.118Z,54.74
2019-01-24T08:51:00.124Z,54.35
2019-01-24T08:54:02.096Z,54.63
2019-01-24T08:57:04.080Z,54.39
2019-01-24T09:00:09.660Z,54.43
2019-01-24T09:03:11.873Z,54.02
2019-01-24T09:06:15.491Z,53.95
2019-01-24T09:09:18.937Z,53.89
2019-01-24T09:12:23.032Z,53.54
2019-01-24T09:15:26.435Z,53.49
2019-01-24T09:18:28.405Z,53.43
2019-01-24T09:21:30.522Z,53.20
2019-01-24T09:24:32.541Z,52.76
2019-01-24T09:27:34.564Z,52.86
2019-01-24T09:30:36.481Z,52.27
2019-01-24T09:33:38.486Z,52.19
2019-01-24T09:36:41.375Z,51.61
2019-01-24T09:39:43.319Z,51.57
2019-01-24T09:42:45.521Z,51.33
2019-01-24T09:45:47.593Z,50.97
2019-01-24T09:48:49.535Z,50.49
2019-01-24T09:51:51.544Z,50.39
2019-01-24T09:54:53.567Z,50.30
2019-01-24T09:57:55.595Z,50.07
2019-01-24T10:00:57.560Z,49.69
2019-01-24T10:03:59.648Z,49.70
2019-01-24T10:07:01.611Z,49.82
2019-01-24T10:10:07.230Z,49.51
2019-01-24T10:13:09.191Z,49.14
2019-01-24T10:16:11.200Z,49.15
2019-01-24T10:19:13.168Z,49.11
2019-01-24T10:22:15.139Z,49.10
2019-01-24T10:25:20.459Z,49.13
2019-01-24T10:28:22.496Z,49.24
2019-01-24T10:31:24.515Z,49.35
2019-01-24T10:34:26.613Z,49.70
2019-01-24T10:37:28.537Z,49.82
2019-01-24T10:40:31.980Z,49.93
2019-01-24T10:43:33.967Z,49.82
2019-01-24T10:46:36.129Z,49.99
2019-01-24T10:49:38.135Z,50.21
2019-01-24T10:52:40.127Z,50.56
2019-01-24T10:55:42.245Z,50.39
2019-01-24T10:58:44.323Z,50.75
2019-01-24T11:01:46.355Z,51.31
2019-01-24T11:04:48.329Z,51.45
2019-01-24T11:07:50.734Z,51.61
2019-01-24T11:10:52.766Z,51.93
2019-01-24T11:13:54.716Z,51.77
2019-01-24T11:16:56.774Z,51.78
2019-01-24T11:19:58.703Z,51.56
2019-01-24T11:23:00.698Z,51.74
2019-01-24T11:26:02.674Z,51.84
2019-01-24T11:29:04.716Z,51.93
2019-01-24T11:32:06.689Z,51.84
2019-01-24T11:35:12.049Z,51.69
2019-01-24T11:38:13.990Z,51.81
2019-01-24T11:41:15.977Z,51.70
2019-01-24T11:44:17.935Z,51.71
2019-01-24T11:47:19.938Z,51.94
2019-01-24T11:50:21.833Z,52.20
2019-01-24T11:53:23.854Z,52.21
2019-01-24T11:56:25.822Z,52.12
2019-01-24T11:59:27.818Z,51.19
2019-01-24T12:02:29.853Z,50.83
2019-01-24T12:05:31.899Z,50.61
2019-01-24T12:08:34.430Z,49.87
2019-01-24T12:11:37.069Z,49.28
2019-01-24T12:14:38.993Z,48.47
2019-01-24T12:17:42.303Z,48.35
2019-01-24T12:20:44.396Z,47.63
2019-01-24T12:23:46.327Z,47.03
2019-01-24T12:26:48.298Z,47.00
2019-01-24T12:29:50.272Z,47.44
2019-01-24T12:32:52.253Z,47.73
2019-01-24T12:35:54.241Z,48.17
2019-01-24T12:38:56.212Z,47.84
2019-01-24T12:41:58.170Z,47.82
2019-01-24T12:45:00.210Z,48.05
2019-01-24T12:48:03.377Z,48.17
2019-01-24T12:51:05.326Z,48.14
2019-01-24T12:54:07.288Z,48.16
2019-01-24T12:57:09.211Z,48.61
2019-01-24T13:00:17.278Z,48.84
2019-01-24T13:03:19.241Z,49.22
2019-01-24T13:06:21.213Z,49.50
2019-01-24T13:09:23.629Z,49.61
2019-01-24T13:12:25.802Z,49.96
2019-01-24T13:15:30.135Z,49.95
2019-01-24T13:18:32.118Z,50.12
2019-01-24T13:21:34.178Z,50.00
2019-01-24T13:24:36.419Z,50.27
2019-01-24T13:27:38.488Z,50.16
2019-01-24T13:30:40.443Z,50.18
2019-01-24T13:33:42.445Z,50.20
2019-01-24T13:36:44.537Z,50.61
2019-01-24T13:39:46.528Z,50.91
2019-01-24T13:42:48.568Z,50.99
2019-01-24T13:45:50.570Z,50.70
2019-01-24T13:48:52.820Z,50.62
2019-01-24T13:51:54.771Z,50.89
2019-01-24T13:54:56.750Z,50.93
2019-01-24T13:57:58.654Z,51.07
2019-01-24T14:01:01.789Z,51.00
2019-01-24T14:04:08.704Z,51.14
2019-01-24T14:07:10.695Z,51.33
2019-01-24T14:10:15.879Z,51.23
2019-01-24T14:13:18.370Z,51.41
2019-01-24T14:16:20.329Z,51.69
2019-01-24T14:19:22.519Z,51.87
2019-01-24T14:22:24.529Z,52.16
2019-01-24T14:25:26.523Z,52.11
2019-01-24T14:28:28.524Z,52.26
2019-01-24T14:31:30.609Z,52.60
2019-01-24T14:34:32.575Z,52.66
2019-01-24T14:37:39.743Z,53.19
2019-01-24T14:40:39.134Z,53.12
2019-01-24T14:43:41.518Z,53.43
2019-01-24T14:46:43.477Z,53.33
2019-01-24T14:49:45.586Z,53.38
2019-01-24T14:52:47.543Z,53.43
2019-01-24T14:55:49.584Z,53.12
2019-01-24T14:58:51.480Z,53.42
2019-01-24T15:01:53.509Z,53.83
2019-01-24T15:04:55.452Z,54.34
2019-01-24T15:07:57.412Z,54.23
2019-01-24T15:10:59.890Z,54.01
2019-01-24T15:14:01.923Z,54.31
2019-01-24T15:17:03.890Z,54.23
2019-01-24T15:20:09.163Z,53.75
2019-01-24T15:23:11.096Z,53.80
2019-01-24T15:26:13.143Z,53.81
2019-01-24T15:29:15.171Z,53.68
2019-01-24T15:32:17.167Z,53.17
2019-01-24T15:35:19.148Z,53.01
2019-01-24T15:38:22.489Z,52.90
2019-01-24T15:41:24.596Z,52.80
2019-01-24T15:44:26.618Z,52.47
2019-01-24T15:47:28.647Z,52.45
2019-01-24T15:50:30.837Z,52.43
2019-01-24T15:53:32.843Z,52.61
2019-01-24T15:56:34.879Z,52.56
2019-01-24T15:59:36.840Z,52.66
2019-01-24T16:02:39.022Z,52.48
2019-01-24T16:05:41.114Z,52.38
2019-01-24T16:08:43.233Z,52.42
2019-01-24T16:11:45.516Z,52.35
2019-01-24T16:14:47.752Z,52.57
2019-01-24T16:17:49.740Z,52.56
2019-01-24T16:20:52.748Z,52.51
2019-01-24T16:23:54.704Z,52.55
2019-01-24T16:26:58.299Z,52.51
2019-01-24T16:30:01.696Z,52.48
2019-01-24T16:33:07.514Z,52.60
2019-01-24T16:36:13.170Z,52.43
2019-01-24T16:39:15.851Z,52.47
2019-01-24T16:42:19.186Z,52.49
2019-01-24T16:45:23.326Z,52.48
2019-01-24T16:48:25.327Z,52.62
2019-01-24T16:51:27.510Z,52.79
2019-01-24T16:54:29.837Z,52.56
2019-01-24T16:57:32.193Z,52.75
2019-01-24T17:00:37.650Z,52.53
2019-01-24T17:03:41.903Z,52.52
2019-01-24T17:06:44.133Z,52.70
2019-01-24T17:09:46.555Z,52.58
2019-01-24T17:12:50.328Z,52.58
2019-01-24T17:15:52.326Z,52.60
2019-01-24T17:18:54.308Z,52.60
2019-01-24T17:21:56.316Z,52.35
2019-01-24T17:24:58.302Z,52.18
2019-01-24T17:28:00.337Z,52.15
2019-01-24T17:31:02.429Z,52.13
2019-01-24T17:34:04.431Z,52.28
2019-01-24T17:37:06.356Z,52.10
2019-01-24T17:40:17.993Z,52.09
2019-01-24T17:43:21.802Z,51.92
2019-01-24T17:46:23.831Z,51.91
2019-01-24T17:49:25.812Z,51.90
2019-01-24T17:52:27.920Z,51.89
2019-01-24T17:55:35.872Z,51.62
2019-01-24T17:58:37.848Z,51.61
2019-01-24T18:01:39.805Z,51.72
2019-01-24T18:04:42.798Z,51.93
2019-01-24T18:07:46.366Z,51.95
2019-01-24T18:10:48.436Z,51.92
2019-01-24T18:13:50.923Z,51.71
2019-01-24T18:16:52.951Z,51.60
2019-01-24T18:19:54.958Z,51.45
2019-01-24T18:23:01.779Z,51.40
2019-01-24T18:26:04.250Z,51.56
2019-01-24T18:29:06.342Z,51.39
2019-01-24T18:32:09.838Z,51.23
2019-01-24T18:35:12.110Z,50.90
2019-01-24T18:38:14.092Z,50.76
2019-01-24T18:41:17.699Z,50.67
2019-01-24T18:44:21.333Z,50.70
2019-01-24T18:47:25.295Z,50.87
2019-01-24T18:50:27.765Z,50.88
2019-01-24T18:53:30.198Z,50.99
2019-01-24T18:56:32.279Z,51.22
2019-01-24T18:59:34.585Z,51.42
2019-01-24T19:02:36.524Z,51.30
2019-01-24T19:05:40.620Z,51.33
2019-01-24T19:08:45.986Z,51.38
2019-01-24T19:11:49.390Z,51.42
2019-01-24T19:14:52.758Z,51.50
2019-01-24T19:17:55.235Z,51.35
2019-01-24T19:20:57.476Z,51.43
2019-01-24T19:23:59.786Z,51.52
2019-01-24T19:27:02.033Z,51.36
2019-01-24T19:30:11.231Z,51.17
2019-01-24T19:33:13.495Z,51.21
2019-01-24T19:36:17.450Z,51.16
2019-01-24T19:39:24.176Z,51.14
2019-01-24T19:42:26.208Z,51.22
2019-01-24T19:45:28.681Z,51.21
2019-01-24T19:48:31.410Z,51.26
2019-01-24T19:51:35.285Z,51.56
2019-01-24T19:54:37.701Z,51.50
2019-01-24T19:57:41.175Z,51.47
2019-01-24T20:00:46.483Z,51.61
2019-01-24T20:03:50.241Z,51.87
2019-01-24T20:06:52.241Z,52.03
2019-01-24T20:09:55.084Z,52.06
2019-01-24T20:12:58.409Z,51.94
2019-01-24T20:16:04.049Z,51.97
2019-01-24T20:19:06.179Z,51.82
2019-01-24T20:22:10.804Z,51.72
2019-01-24T20:25:21.771Z,51.65
2019-01-24T20:28:25.533Z,51.67
2019-01-24T20:31:31.491Z,51.62
2019-01-24T20:34:37.588Z,51.45
2019-01-24T20:37:40.055Z,51.25
2019-01-24T20:40:42.024Z,50.98
2019-01-24T20:43:49.871Z,50.83
2019-01-24T20:46:52.204Z,50.67
2019-01-24T20:49:54.255Z,50.72
2019-01-24T20:52:56.728Z,50.64
2019-01-24T20:55:59.062Z,50.65
2019-01-24T20:59:04.623Z,50.70
2019-01-24T21:02:07.026Z,50.50
2019-01-24T21:05:10.730Z,50.59
2019-01-24T21:08:14.325Z,50.64
2019-01-24T21:11:16.333Z,50.66
2019-01-24T21:14:18.551Z,50.77
2019-01-24T21:17:20.763Z,50.78
2019-01-24T21:20:28.065Z,50.87
2019-01-24T21:23:30.046Z,50.87
2019-01-24T21:26:32.688Z,50.86
2019-01-24T21:29:34.675Z,50.66
2019-01-24T21:32:36.976Z,50.58
2019-01-24T21:35:38.929Z,50.51
2019-01-24T21:38:41.121Z,50.38
2019-01-24T21:41:44.363Z,50.50
2019-01-24T21:44:46.400Z,50.56
2019-01-24T21:47:48.407Z,50.24
2019-01-24T21:50:50.438Z,50.37
2019-01-24T21:53:54.186Z,50.34
2019-01-24T21:56:56.307Z,50.19
2019-01-24T21:59:58.302Z,50.14
2019-01-24T22:03:00.267Z,50.02
2019-01-24T22:06:02.259Z,50.01
2019-01-24T22:09:06.707Z,49.77
2019-01-24T22:12:08.836Z,49.80
2019-01-24T22:15:14.757Z,49.84
2019-01-24T22:18:18.474Z,49.78
2019-01-24T22:21:20.562Z,49.76
2019-01-24T22:24:23.815Z,50.00
2019-01-24T22:27:25.889Z,49.99
2019-01-24T22:30:35.767Z,49.96
2019-01-24T22:33:37.784Z,49.87
2019-01-24T22:36:39.709Z,50.01
2019-01-24T22:39:43.023Z,49.96
2019-01-24T22:42:45.153Z,49.88
2019-01-24T22:45:47.180Z,50.02
2019-01-24T22:48:49.122Z,50.23
2019-01-24T22:51:51.161Z,50.08
2019-01-24T22:54:53.111Z,50.12
2019-01-24T22:57:55.243Z,50.06
2019-01-24T23:01:03.530Z,50.21
2019-01-24T23:04:07.316Z,50.23
2019-01-24T23:07:09.333Z,50.17
2019-01-24T23:10:11.719Z,50.18
2019-01-24T23:13:13.646Z,50.37
2019-01-24T23:16:16.509Z,50.18
2019-01-24T23:19:19.359Z,50.15
2019-01-24T23:22:21.406Z,50.08
2019-01-24T23:25:23.363Z,49.95
2019-01-24T23:28:25.313Z,50.01
2019-01-24T23:31:27.277Z,50.05
2019-01-24T23:34:29.345Z,50.18
2019-01-24T23:37:31.296Z,50.16
2019-01-24T23:40:33.287Z,50.23
2019-01-24T23:43:35.268Z,50.13
2019-01-24T23:46:37.281Z,50.00
2019-01-24T23:49:39.272Z,50.14
2019-01-24T23:52:41.270Z,50.22
2019-01-24T23:55:43.236Z,50.67
2019-01-24T23:58:45.359Z,50.73
